createdAt,value
2019-01-20T00:01:54.631Z,86.21
2019-01-20T00:04:25.171Z,86.19
2019-01-20T00:06:58.210Z,86.09
2019-01-20T00:09:29.733Z,86.25
2019-01-20T00:12:00.484Z,86.17
2019-01-20T00:14:30.912Z,86.07
2019-01-20T00:17:01.696Z,85.97
2019-01-20T00:19:32.132Z,85.77
2019-01-20T00:22:02.702Z,85.64
2019-01-20T00:24:33.272Z,85.57
2019-01-20T00:27:03.937Z,85.44
2019-01-20T00:29:34.455Z,85.34
2019-01-20T00:32:05.168Z,85.26
2019-01-20T00:34:36.073Z,85.24
2019-01-20T00:37:06.830Z,85.05
2019-01-20T00:39:37.550Z,84.87
2019-01-20T00:42:08.946Z,84.80
2019-01-20T00:44:39.535Z,84.92
2019-01-20T00:47:10.199Z,85.11
2019-01-20T00:49:40.802Z,85.21
2019-01-20T00:52:11.952Z,85.23
2019-01-20T00:54:42.490Z,85.30
2019-01-20T00:57:13.138Z,85.30
2019-01-20T00:59:43.678Z,85.26
2019-01-20T01:02:14.145Z,85.34
2019-01-20T01:04:44.611Z,85.35
2019-01-20T01:07:15.193Z,85.30
2019-01-20T01:09:45.818Z,85.42
2019-01-20T01:12:19.412Z,85.48
2019-01-20T01:14:50.483Z,85.38
2019-01-20T01:17:21.016Z,85.57
2019-01-20T01:19:53.260Z,85.49
2019-01-20T01:22:23.756Z,85.44
2019-01-20T01:24:54.321Z,85.54
2019-01-20T01:27:24.865Z,85.54
2019-01-20T01:29:55.451Z,85.53
2019-01-20T01:32:26.046Z,85.57
2019-01-20T01:34:56.839Z,85.60
2019-01-20T01:37:27.501Z,85.58
2019-01-20T01:39:58.171Z,85.51
2019-01-20T01:42:28.665Z,85.40
2019-01-20T01:44:59.178Z,85.44
2019-01-20T01:47:29.745Z,85.40
2019-01-20T01:50:00.197Z,85.51
2019-01-20T01:52:30.832Z,85.42
2019-01-20T01:55:01.297Z,85.42
2019-01-20T01:57:32.364Z,85.30
2019-01-20T02:00:03.687Z,85.19
2019-01-20T02:02:34.350Z,85.13
2019-01-20T02:05:05.673Z,85.10
2019-01-20T02:07:36.319Z,85.11
2019-01-20T02:10:10.177Z,85.15
2019-01-20T02:12:40.769Z,85.19
2019-01-20T02:15:14.813Z,85.14
2019-01-20T02:17:45.415Z,85.11
2019-01-20T02:20:19.691Z,85.12
2019-01-20T02:22:50.820Z,85.11
2019-01-20T02:25:21.582Z,85.13
2019-01-20T02:27:55.243Z,85.10
2019-01-20T02:30:28.982Z,85.04
2019-01-20T02:32:59.628Z,85.07
2019-01-20T02:35:30.266Z,85.10
2019-01-20T02:38:00.732Z,85.17
2019-01-20T02:40:31.382Z,85.28
2019-01-20T02:43:02.147Z,85.31
2019-01-20T02:45:32.896Z,85.27
2019-01-20T02:48:03.616Z,85.30
2019-01-20T02:50:34.128Z,85.34
2019-01-20T02:53:04.583Z,85.33
2019-01-20T02:55:35.292Z,85.31
2019-01-20T02:58:06.501Z,85.18
2019-01-20T03:00:36.989Z,85.17
2019-01-20T03:03:08.668Z,85.15
2019-01-20T03:05:39.463Z,85.17
2019-01-20T03:08:10.420Z,85.21
2019-01-20T03:10:41.212Z,85.23
2019-01-20T03:13:11.840Z,85.31
2019-01-20T03:15:42.427Z,85.43
2019-01-20T03:18:13.359Z,85.35
2019-01-20T03:20:44.002Z,85.35
2019-01-20T03:23:14.695Z,85.32
2019-01-20T03:25:45.314Z,85.45
2019-01-20T03:28:15.861Z,85.39
2019-01-20T03:30:47.083Z,85.42
2019-01-20T03:33:17.582Z,85.46
2019-01-20T03:35:48.261Z,85.64
2019-01-20T03:38:18.722Z,85.71
2019-01-20T03:40:49.446Z,85.76
2019-01-20T03:43:20.478Z,85.66
2019-01-20T03:45:50.905Z,85.49
2019-01-20T03:48:21.391Z,85.41
2019-01-20T03:50:51.871Z,85.31
2019-01-20T03:53:22.557Z,85.33
2019-01-20T03:55:53.022Z,85.30
2019-01-20T03:58:23.606Z,85.30
2019-01-20T04:00:54.082Z,85.33
2019-01-20T04:03:24.539Z,85.45
2019-01-20T04:05:55.116Z,85.43
2019-01-20T04:08:25.676Z,85.46
2019-01-20T04:10:56.151Z,85.48
2019-01-20T04:13:26.701Z,85.39
2019-01-20T04:15:57.282Z,85.35
2019-01-20T04:18:27.738Z,85.34
2019-01-20T04:20:58.341Z,86.29
2019-01-20T04:23:28.957Z,86.93
2019-01-20T04:25:59.471Z,87.21
2019-01-20T04:28:29.962Z,87.23
2019-01-20T04:31:00.430Z,87.18
2019-01-20T04:33:31.024Z,87.08
2019-01-20T04:36:01.643Z,87.01
2019-01-20T04:38:32.226Z,86.89
2019-01-20T04:41:02.760Z,86.84
2019-01-20T04:43:33.316Z,86.80
2019-01-20T04:46:03.940Z,86.78
2019-01-20T04:48:34.475Z,86.67
2019-01-20T04:51:04.996Z,86.58
2019-01-20T04:53:36.270Z,86.49
2019-01-20T04:56:07.102Z,86.50
2019-01-20T04:58:37.602Z,86.52
2019-01-20T05:01:08.390Z,86.53
2019-01-20T05:03:38.911Z,86.50
2019-01-20T05:06:09.597Z,86.53
2019-01-20T05:08:40.104Z,86.50
2019-01-20T05:11:10.625Z,86.49
2019-01-20T05:13:41.375Z,86.45
2019-01-20T05:16:11.882Z,86.41
2019-01-20T05:18:42.481Z,86.42
2019-01-20T05:21:13.062Z,86.36
2019-01-20T05:23:43.512Z,86.28
2019-01-20T05:26:14.046Z,86.31
2019-01-20T05:28:44.517Z,86.34
2019-01-20T05:31:15.141Z,86.38
2019-01-20T05:33:45.767Z,86.47
2019-01-20T05:36:16.291Z,86.58
2019-01-20T05:38:46.883Z,86.58
2019-01-20T05:41:17.420Z,86.54
2019-01-20T05:43:47.909Z,86.54
2019-01-20T05:46:18.458Z,86.61
2019-01-20T05:48:48.900Z,86.76
2019-01-20T05:51:19.473Z,86.80
2019-01-20T05:53:49.940Z,86.79
2019-01-20T05:56:20.466Z,86.92
2019-01-20T05:58:51.342Z,86.97
2019-01-20T06:01:22.051Z,86.87
2019-01-20T06:03:52.549Z,87.02
2019-01-20T06:06:23.109Z,87.21
2019-01-20T06:08:53.587Z,87.47
2019-01-20T06:11:24.220Z,87.67
2019-01-20T06:13:54.721Z,87.81
2019-01-20T06:16:25.375Z,87.80
2019-01-20T06:18:55.853Z,87.64
2019-01-20T06:21:26.252Z,87.32
2019-01-20T06:23:56.830Z,87.01
2019-01-20T06:26:27.361Z,87.07
2019-01-20T06:28:58.003Z,87.44
2019-01-20T06:31:29.072Z,87.36
2019-01-20T06:34:01.481Z,86.99
2019-01-20T06:36:32.906Z,86.57
2019-01-20T06:39:04.882Z,86.59
2019-01-20T06:41:36.858Z,86.67
2019-01-20T06:44:09.821Z,87.04
2019-01-20T06:46:40.347Z,87.06
2019-01-20T06:49:10.911Z,87.11
2019-01-20T06:51:41.455Z,86.72
2019-01-20T06:54:13.170Z,86.61
2019-01-20T06:56:44.256Z,86.38
2019-01-20T06:59:16.207Z,86.37
2019-01-20T07:01:46.799Z,86.44
2019-01-20T07:04:17.375Z,86.50
2019-01-20T07:06:47.871Z,86.74
2019-01-20T07:09:18.351Z,86.94
2019-01-20T07:11:48.918Z,86.91
2019-01-20T07:14:19.476Z,86.67
2019-01-20T07:16:50.449Z,85.64
2019-01-20T07:19:21.037Z,84.78
2019-01-20T07:21:51.739Z,84.58
2019-01-20T07:24:22.201Z,84.20
2019-01-20T07:26:52.605Z,81.97
2019-01-20T07:29:24.688Z,80.12
2019-01-20T07:31:56.222Z,80.27
2019-01-20T07:34:27.499Z,78.64
2019-01-20T07:36:58.192Z,76.20
2019-01-20T07:39:28.745Z,74.83
2019-01-20T07:41:59.294Z,72.86
2019-01-20T07:44:29.875Z,70.47
2019-01-20T07:47:00.571Z,68.68
2019-01-20T07:49:31.221Z,68.80
2019-01-20T07:52:01.790Z,66.07
2019-01-20T07:54:32.201Z,67.88
2019-01-20T07:57:02.761Z,67.30
2019-01-20T07:59:33.354Z,67.01
2019-01-20T08:02:03.970Z,66.92
2019-01-20T08:04:34.647Z,65.43
2019-01-20T08:07:05.158Z,66.19
2019-01-20T08:09:36.523Z,63.22
2019-01-20T08:12:07.561Z,62.46
2019-01-20T08:14:38.389Z,59.45
2019-01-20T08:17:09.551Z,59.98
2019-01-20T08:19:40.152Z,60.28
2019-01-20T08:22:10.767Z,62.00
2019-01-20T08:24:41.554Z,65.86
2019-01-20T08:27:12.275Z,65.11
2019-01-20T08:29:42.898Z,61.30
2019-01-20T08:32:13.617Z,60.81
2019-01-20T08:34:44.361Z,60.80
2019-01-20T08:37:15.220Z,63.72
2019-01-20T08:39:45.921Z,63.26
2019-01-20T08:42:16.561Z,61.86
2019-01-20T08:44:47.671Z,61.00
2019-01-20T08:47:46.242Z,55.58
2019-01-20T08:50:18.322Z,57.45
2019-01-20T08:52:48.896Z,54.17
2019-01-20T08:55:19.491Z,53.26
2019-01-20T08:57:50.057Z,54.08
2019-01-20T09:00:20.652Z,48.74
2019-01-20T09:02:51.310Z,48.13
2019-01-20T09:05:21.726Z,45.04
2019-01-20T09:07:52.349Z,47.52
2019-01-20T09:10:27.451Z,43.92
2019-01-20T09:13:01.655Z,42.79
2019-01-20T09:15:32.464Z,41.17
2019-01-20T09:18:03.175Z,47.26
2019-01-20T09:20:33.885Z,42.41
2019-01-20T09:23:05.160Z,38.93
2019-01-20T09:25:36.416Z,38.91
2019-01-20T09:28:07.312Z,44.87
2019-01-20T09:30:38.096Z,46.23
2019-01-20T09:33:08.779Z,43.23
2019-01-20T09:35:39.751Z,41.14
2019-01-20T09:38:11.077Z,39.12
2019-01-20T09:40:41.630Z,37.95
2019-01-20T09:43:12.185Z,46.63
2019-01-20T09:45:43.076Z,45.37
2019-01-20T09:48:13.736Z,49.04
2019-01-20T09:50:44.410Z,51.57
2019-01-20T09:53:14.940Z,51.43
2019-01-20T09:55:45.476Z,51.14
2019-01-20T09:58:16.461Z,49.59
2019-01-20T10:00:47.049Z,48.90
2019-01-20T10:03:17.531Z,50.29
2019-01-20T10:05:48.229Z,50.46
2019-01-20T10:08:18.727Z,47.27
2019-01-20T10:10:49.390Z,44.18
2019-01-20T10:13:19.892Z,43.05
2019-01-20T10:15:52.387Z,41.65
2019-01-20T10:18:22.777Z,40.45
2019-01-20T10:20:53.256Z,43.54
2019-01-20T10:23:23.832Z,37.94
2019-01-20T10:25:54.349Z,34.83
2019-01-20T10:28:27.555Z,34.73
2019-01-20T10:30:58.271Z,40.21
2019-01-20T10:33:28.887Z,44.49
2019-01-20T10:36:04.272Z,41.28
2019-01-20T10:38:37.090Z,44.81
2019-01-20T10:41:07.525Z,46.45
2019-01-20T10:43:38.187Z,45.70
2019-01-20T10:46:08.861Z,47.15
2019-01-20T10:48:39.365Z,45.07
2019-01-20T10:51:09.951Z,45.72
2019-01-20T10:53:40.482Z,49.40
2019-01-20T10:56:11.131Z,43.16
2019-01-20T10:58:41.811Z,46.84
2019-01-20T11:01:12.361Z,41.85
2019-01-20T11:03:42.970Z,38.06
2019-01-20T11:06:13.646Z,45.63
2019-01-20T11:08:44.183Z,38.91
2019-01-20T11:11:14.841Z,43.94
2019-01-20T11:13:45.477Z,43.52
2019-01-20T11:16:16.003Z,44.82
2019-01-20T11:18:46.406Z,38.34
2019-01-20T11:21:16.907Z,45.73
2019-01-20T11:23:48.145Z,46.46
2019-01-20T11:26:18.484Z,46.89
2019-01-20T11:28:48.981Z,41.66
2019-01-20T11:31:19.470Z,37.10
2019-01-20T11:33:49.830Z,42.46
2019-01-20T11:36:20.630Z,40.78
2019-01-20T11:38:51.227Z,51.27
2019-01-20T11:41:21.905Z,47.05
2019-01-20T11:43:52.738Z,45.67
2019-01-20T11:46:27.778Z,41.02
2019-01-20T11:48:58.717Z,38.65
2019-01-20T11:51:29.642Z,47.00
2019-01-20T11:54:00.216Z,46.44
2019-01-20T11:56:30.997Z,46.71
2019-01-20T11:59:01.566Z,40.59
2019-01-20T12:01:32.125Z,39.81
2019-01-20T12:04:02.732Z,37.41
2019-01-20T12:06:33.353Z,38.46
2019-01-20T12:09:05.413Z,36.75
2019-01-20T12:11:35.996Z,36.90
2019-01-20T12:14:07.734Z,41.69
2019-01-20T12:16:38.572Z,47.28
2019-01-20T12:19:09.036Z,42.66
2019-01-20T12:21:39.658Z,42.56
2019-01-20T12:24:10.197Z,43.83
2019-01-20T12:26:40.824Z,44.46
2019-01-20T12:29:11.426Z,44.84
2019-01-20T12:31:41.835Z,46.83
2019-01-20T12:34:12.548Z,46.76
2019-01-20T12:36:43.335Z,44.97
2019-01-20T12:39:13.833Z,47.23
2019-01-20T12:41:44.462Z,45.30
2019-01-20T12:44:14.942Z,44.91
2019-01-20T12:46:46.226Z,46.35
2019-01-20T12:49:16.898Z,48.00
2019-01-20T12:51:47.648Z,49.03
2019-01-20T12:54:18.087Z,50.13
2019-01-20T12:56:48.623Z,51.67
2019-01-20T12:59:19.075Z,54.32
2019-01-20T13:01:49.526Z,53.27
2019-01-20T13:04:20.973Z,52.74
2019-01-20T13:06:51.589Z,53.99
2019-01-20T13:09:22.228Z,53.33
2019-01-20T13:11:53.059Z,54.28
2019-01-20T13:14:24.281Z,55.38
2019-01-20T13:16:54.841Z,56.36
2019-01-20T13:19:26.186Z,56.11
2019-01-20T13:21:56.802Z,55.15
2019-01-20T13:24:27.945Z,57.99
2019-01-20T13:26:59.068Z,56.00
2019-01-20T13:29:29.718Z,55.83
2019-01-20T13:32:03.155Z,58.03
2019-01-20T13:34:33.836Z,60.03
2019-01-20T13:37:05.338Z,63.01
2019-01-20T13:39:35.950Z,63.44
2019-01-20T13:42:06.507Z,64.31
2019-01-20T13:44:37.098Z,65.15
2019-01-20T13:47:07.620Z,65.91
2019-01-20T13:49:38.259Z,67.12
2019-01-20T13:52:09.263Z,66.71
2019-01-20T13:54:39.875Z,68.67
2019-01-20T13:57:10.666Z,67.11
2019-01-20T13:59:41.142Z,68.40
2019-01-20T14:02:11.801Z,67.97
2019-01-20T14:04:42.563Z,68.20
2019-01-20T14:07:13.018Z,68.67
2019-01-20T14:09:44.018Z,68.91
2019-01-20T14:12:14.689Z,69.02
2019-01-20T14:14:45.206Z,68.73
2019-01-20T14:17:15.667Z,69.37
2019-01-20T14:19:47.792Z,69.15
2019-01-20T14:22:18.358Z,68.66
2019-01-20T14:24:48.818Z,67.55
2019-01-20T14:27:19.281Z,68.72
2019-01-20T14:29:53.395Z,68.16
2019-01-20T14:32:23.969Z,68.28
2019-01-20T14:34:54.590Z,68.33
2019-01-20T14:37:25.267Z,67.65
2019-01-20T14:39:56.228Z,68.37
2019-01-20T14:42:26.810Z,68.15
2019-01-20T14:45:01.138Z,67.95
2019-01-20T14:47:31.216Z,67.87
2019-01-20T14:50:01.808Z,67.85
2019-01-20T14:52:32.362Z,67.96
2019-01-20T14:55:03.372Z,68.23
2019-01-20T14:57:34.072Z,68.78
2019-01-20T15:00:10.043Z,69.26
2019-01-20T15:02:40.716Z,69.90
2019-01-20T15:05:11.782Z,70.63
2019-01-20T15:07:43.567Z,71.79
2019-01-20T15:10:18.399Z,72.54
2019-01-20T15:12:50.258Z,72.52
2019-01-20T15:15:29.098Z,73.22
2019-01-20T15:17:59.923Z,74.16
2019-01-20T15:20:30.673Z,75.09
2019-01-20T15:23:04.605Z,75.84
2019-01-20T15:25:35.982Z,76.55
2019-01-20T15:28:08.477Z,77.07
2019-01-20T15:30:46.495Z,77.63
2019-01-20T15:33:17.182Z,78.08
2019-01-20T15:35:51.471Z,78.52
2019-01-20T15:38:22.506Z,79.14
2019-01-20T15:40:53.267Z,79.38
2019-01-20T15:43:25.199Z,79.70
2019-01-20T15:45:57.037Z,80.01
2019-01-20T15:48:31.041Z,80.36
2019-01-20T15:51:05.256Z,80.88
2019-01-20T15:53:37.113Z,81.06
2019-01-20T15:56:11.338Z,81.41
2019-01-20T15:58:44.063Z,81.55
2019-01-20T16:01:15.202Z,81.38
2019-01-20T16:03:47.201Z,81.30
2019-01-20T16:06:22.431Z,81.16
2019-01-20T16:08:54.799Z,80.97
2019-01-20T16:11:26.442Z,80.91
2019-01-20T16:13:58.991Z,80.96
2019-01-20T16:16:30.829Z,80.68
2019-01-20T16:19:02.089Z,80.74
2019-01-20T16:21:37.916Z,81.15
2019-01-20T16:24:09.067Z,81.05
2019-01-20T16:26:42.997Z,80.88
2019-01-20T16:29:13.881Z,81.47
2019-01-20T16:31:49.614Z,81.59
2019-01-20T16:34:23.574Z,81.62
2019-01-20T16:36:58.863Z,81.74
2019-01-20T16:39:30.615Z,81.94
2019-01-20T16:42:03.898Z,82.02
2019-01-20T16:44:35.823Z,82.18
2019-01-20T16:47:07.574Z,82.17
2019-01-20T16:49:48.487Z,82.20
2019-01-20T16:52:20.457Z,82.12
2019-01-20T16:54:58.475Z,82.22
2019-01-20T16:57:33.302Z,82.49
2019-01-20T17:00:03.996Z,82.84
2019-01-20T17:02:50.642Z,82.87
2019-01-20T17:05:21.358Z,82.93
2019-01-20T17:07:52.126Z,82.92
2019-01-20T17:10:27.185Z,83.03
2019-01-20T17:13:00.358Z,82.94
2019-01-20T17:15:42.043Z,83.20
2019-01-20T17:18:16.968Z,83.28
2019-01-20T17:21:00.786Z,83.69
2019-01-20T17:23:32.873Z,83.72
2019-01-20T17:26:11.643Z,83.74
2019-01-20T17:28:52.157Z,83.81
2019-01-20T17:31:24.102Z,83.99
2019-01-20T17:33:59.108Z,84.13
2019-01-20T17:36:34.631Z,84.19
2019-01-20T17:39:13.831Z,84.37
2019-01-20T17:41:48.387Z,84.46
2019-01-20T17:44:21.077Z,84.91
2019-01-20T17:46:55.087Z,85.17
2019-01-20T17:49:37.567Z,85.37
2019-01-20T17:52:08.266Z,85.52
2019-01-20T17:54:41.633Z,85.62
2019-01-20T17:57:13.967Z,85.85
2019-01-20T17:59:48.403Z,86.00
2019-01-20T18:02:19.705Z,85.88
2019-01-20T18:04:53.180Z,85.89
2019-01-20T18:07:26.118Z,86.04
2019-01-20T18:10:01.253Z,86.27
2019-01-20T18:12:35.252Z,86.69
2019-01-20T18:15:11.066Z,86.78
2019-01-20T18:17:42.345Z,86.78
2019-01-20T18:20:20.097Z,86.95
2019-01-20T18:22:51.899Z,87.25
2019-01-20T18:25:34.151Z,87.34
2019-01-20T18:28:13.422Z,87.63
2019-01-20T18:30:47.494Z,87.53
2019-01-20T18:33:21.097Z,87.68
2019-01-20T18:35:58.024Z,87.71
2019-01-20T18:38:29.895Z,87.79
2019-01-20T18:41:00.805Z,87.82
2019-01-20T18:43:32.507Z,87.87
2019-01-20T19:04:25.076Z,87.51
2019-01-20T19:07:12.565Z,87.74
2019-01-20T19:10:16.595Z,87.84
2019-01-20T19:12:47.918Z,87.87
2019-01-20T19:15:20.171Z,87.92
2019-01-20T19:18:26.409Z,87.84
2019-01-20T19:21:06.728Z,87.68
2019-01-20T19:23:39.743Z,87.55
2019-01-20T19:26:15.801Z,87.37
2019-01-20T19:28:51.786Z,87.19
2019-01-20T19:31:24.002Z,86.97
2019-01-20T19:34:02.858Z,86.93
2019-01-20T19:36:34.869Z,86.58
2019-01-20T19:39:12.950Z,86.69
2019-01-20T19:41:48.101Z,87.03
2019-01-20T19:44:22.134Z,87.25
2019-01-20T19:46:52.985Z,87.59
2019-01-20T19:49:27.583Z,87.13
2019-01-20T19:52:11.338Z,86.61
2019-01-20T19:55:03.075Z,86.26
2019-01-20T19:57:35.624Z,85.58
2019-01-20T20:00:18.066Z,85.29
2019-01-20T20:02:48.900Z,85.31
2019-01-20T20:05:30.754Z,85.40
2019-01-20T20:08:03.254Z,85.41
2019-01-20T20:10:37.571Z,85.73
2019-01-20T20:13:15.288Z,86.64
2019-01-20T20:15:52.386Z,87.31
2019-01-20T20:18:30.653Z,87.88
2019-01-20T20:21:09.090Z,88.27
2019-01-20T20:23:48.300Z,88.42
2019-01-20T20:26:26.657Z,88.61
2019-01-20T20:29:03.145Z,88.77
2019-01-20T20:31:44.518Z,88.97
2019-01-20T20:34:18.749Z,89.11
2019-01-20T20:36:50.503Z,89.15
2019-01-20T20:39:27.628Z,89.29
2019-01-20T20:42:02.969Z,89.33
2019-01-20T20:44:36.431Z,89.35
2019-01-20T20:47:10.943Z,89.36
2019-01-20T20:49:48.344Z,89.37
2019-01-20T20:52:20.718Z,89.45
2019-01-20T20:54:54.325Z,89.41
2019-01-20T20:57:30.169Z,89.41
2019-01-20T21:00:05.746Z,89.31
2019-01-20T21:02:36.418Z,89.18
2019-01-20T21:05:13.166Z,89.20
2019-01-20T21:07:44.955Z,89.26
2019-01-20T21:10:23.795Z,89.15
2019-01-20T21:12:58.006Z,89.07
2019-01-20T21:15:36.208Z,88.87
2019-01-20T21:18:07.809Z,88.79
2019-01-20T21:20:39.817Z,88.67
2019-01-20T21:23:13.640Z,88.41
2019-01-20T21:25:45.694Z,88.33
2019-01-20T21:28:19.479Z,88.44
2019-01-20T21:30:54.900Z,88.46
2019-01-20T21:33:25.704Z,88.95
2019-01-20T21:35:59.003Z,88.96
2019-01-20T21:38:32.383Z,89.08
2019-01-20T21:41:02.965Z,89.22
2019-01-20T21:43:35.563Z,89.25
2019-01-20T21:46:07.354Z,89.28
2019-01-20T21:48:40.035Z,89.36
2019-01-20T21:51:13.745Z,89.24
2019-01-20T21:53:44.306Z,89.26
2019-01-20T21:56:14.986Z,89.35
2019-01-20T21:58:45.607Z,89.33
2019-01-20T22:01:16.144Z,89.45
2019-01-20T22:03:46.875Z,89.45
2019-01-20T22:06:17.497Z,89.69
2019-01-20T22:08:48.024Z,89.89
2019-01-20T22:11:19.125Z,90.11
2019-01-20T22:13:49.658Z,90.17
2019-01-20T22:16:20.305Z,90.28
2019-01-20T22:18:50.995Z,90.31
2019-01-20T22:21:21.545Z,90.43
2019-01-20T22:23:52.090Z,90.43
2019-01-20T22:26:22.665Z,90.41
2019-01-20T22:28:53.110Z,90.48
2019-01-20T22:31:23.759Z,90.41
2019-01-20T22:33:54.377Z,90.17
2019-01-20T22:36:24.817Z,90.14
2019-01-20T22:38:55.506Z,90.19
2019-01-20T22:41:26.017Z,90.22
2019-01-20T22:43:56.494Z,90.23
2019-01-20T22:46:27.566Z,90.14
2019-01-20T22:48:58.242Z,90.24
2019-01-20T22:51:29.170Z,89.99
2019-01-20T22:53:59.937Z,90.13
2019-01-20T22:56:30.578Z,90.10
2019-01-20T22:59:01.215Z,90.18
2019-01-20T23:01:32.428Z,89.86
2019-01-20T23:04:03.065Z,89.33
2019-01-20T23:06:33.866Z,88.96
2019-01-20T23:09:06.696Z,89.50
2019-01-20T23:11:37.606Z,89.91
2019-01-20T23:14:08.318Z,90.40
2019-01-20T23:16:39.065Z,90.60
2019-01-20T23:19:09.689Z,90.75
2019-01-20T23:21:40.403Z,90.82
2019-01-20T23:24:10.997Z,90.98
2019-01-20T23:26:42.066Z,90.96
2019-01-20T23:29:12.785Z,90.95
2019-01-20T23:31:43.505Z,90.93
2019-01-20T23:34:14.177Z,91.17
2019-01-20T23:36:44.671Z,91.21
2019-01-20T23:39:15.145Z,91.31
2019-01-20T23:41:45.637Z,91.21
2019-01-20T23:44:16.245Z,91.19
2019-01-20T23:46:46.825Z,91.19
2019-01-20T23:49:17.517Z,91.28
2019-01-20T23:51:48.154Z,91.26
2019-01-20T23:54:19.278Z,91.33
2019-01-20T23:56:50.077Z,91.44
2019-01-20T23:59:20.549Z,91.38
